Time;durP1;ratioP1;P1;durP2;ratioP2;P2;SDS_P1;SDS_P2;PMS_P1;PMS_P2;Temp;Humidity;BMP_temperature;BMP_pressure;BME280_temperature;BME280_humidity;BME280_pressure;Samples;Min_cycle;Max_cycle;Signal;HPM_P1;HPM_P2
2023/05/30 00:01:07;;;;;;;6.30;1.77;;;;;;;;;;6213736;23;20170;-82
2023/05/30 00:03:36;;;;;;;3.63;2.93;;;;;;;;;;6214323;23;20237;-86
2023/05/30 00:06:05;;;;;;;1.23;1.23;;;;;;;;;;6214484;23;20175;-84
2023/05/30 00:08:35;;;;;;;2.00;1.63;;;;;;;;;;6214220;23;20189;-84
2023/05/30 00:11:03;;;;;;;7.77;3.20;;;;;;;;;;6214293;23;20257;-82
2023/05/30 00:13:32;;;;;;;2.90;1.57;;;;;;;;;;6214536;23;20266;-82
2023/05/30 00:16:01;;;;;;;7.53;1.70;;;;;;;;;;6214035;23;20175;-82
2023/05/30 00:18:34;;;;;;;3.73;1.63;;;;;;;;;;6213680;23;20174;-82
2023/05/30 00:21:03;;;;;;;5.70;1.93;;;;;;;;;;6214083;23;20217;-82
2023/05/30 00:23:32;;;;;;;3.83;2.47;;;;;;;;;;6214135;23;20360;-82
2023/05/30 00:26:03;;;;;;;2.50;2.07;;;;;;;;;;6213513;23;20185;-82
2023/05/30 00:28:32;;;;;;;1.10;1.10;;;;;;;;;;6214104;23;20230;-82
2023/05/30 00:31:00;;;;;;;4.23;1.70;;;;;;;;;;6214149;23;20289;-82
2023/05/30 00:33:29;;;;;;;1.60;1.33;;;;;;;;;;6213621;23;20180;-82
2023/05/30 00:35:57;;;;;;;3.77;2.53;;;;;;;;;;6214120;23;20233;-82
2023/05/30 00:38:25;;;;;;;1.93;1.43;;;;;;;;;;6214142;23;20182;-82
2023/05/30 00:40:54;;;;;;;3.13;1.50;;;;;;;;;;6214194;23;20202;-82
2023/05/30 00:43:24;;;;;;;2.80;2.13;;;;;;;;;;6213253;23;20189;-82
2023/05/30 00:45:54;;;;;;;2.47;2.27;;;;;;;;;;6213992;23;20216;-81
2023/05/30 00:48:23;;;;;;;1.23;1.13;;;;;;;;;;6214372;23;20233;-84
2023/05/30 00:50:53;;;;;;;4.70;2.17;;;;;;;;;;6213675;23;20179;-85
2023/05/30 00:53:23;;;;;;;3.20;2.20;;;;;;;;;;6214038;23;20264;-85
2023/05/30 00:55:52;;;;;;;1.50;1.47;;;;;;;;;;6213903;23;20178;-85
2023/05/30 00:58:21;;;;;;;3.87;1.77;;;;;;;;;;6213453;23;20170;-85
2023/05/30 01:00:52;;;;;;;4.20;2.10;;;;;;;;;;6213607;23;20228;-85
2023/05/30 01:03:24;;;;;;;3.27;2.27;;;;;;;;;;6214566;23;20202;-85
2023/05/30 01:05:53;;;;;;;5.23;1.50;;;;;;;;;;6214126;23;20178;-85
2023/05/30 01:08:22;;;;;;;3.03;1.57;;;;;;;;;;6213677;23;20183;-85
2023/05/30 01:10:54;;;;;;;4.20;3.80;;;;;;;;;;6213430;23;20180;-85
2023/05/30 01:13:28;;;;;;;2.23;1.67;;;;;;;;;;6213743;23;20187;-85
2023/05/30 01:16:01;;;;;;;9.23;3.40;;;;;;;;;;6213403;23;20181;-85
2023/05/30 01:18:33;;;;;;;7.60;1.97;;;;;;;;;;6214054;23;20174;-85
2023/05/30 01:21:07;;;;;;;4.53;2.33;;;;;;;;;;6213889;23;20201;-82
2023/05/30 01:23:47;;;;;;;4.07;2.27;;;;;;;;;;6213268;23;20169;-82
2023/05/30 01:26:23;;;;;;;2.87;1.93;;;;;;;;;;6213536;23;20178;-82
2023/05/30 01:28:54;;;;;;;2.13;1.67;;;;;;;;;;6213916;23;20194;-82
2023/05/30 01:31:23;;;;;;;4.50;4.10;;;;;;;;;;6213325;23;20178;-82
2023/05/30 01:33:52;;;;;;;1.80;1.53;;;;;;;;;;6213514;23;20178;-82
2023/05/30 01:36:21;;;;;;;3.37;2.70;;;;;;;;;;6213711;23;20182;-82
2023/05/30 01:38:50;;;;;;;3.67;2.30;;;;;;;;;;6213650;23;20171;-82
2023/05/30 01:41:21;;;;;;;3.90;1.87;;;;;;;;;;6213402;23;20167;-82
2023/05/30 01:43:51;;;;;;;5.13;2.27;;;;;;;;;;6214268;23;20181;-82
2023/05/30 01:46:26;;;;;;;5.00;2.33;;;;;;;;;;6213979;23;20281;-82
2023/05/30 01:48:59;;;;;;;2.73;2.53;;;;;;;;;;6213793;23;20202;-82
2023/05/30 01:51:31;;;;;;;5.47;2.37;;;;;;;;;;6215551;23;20187;-82
2023/05/30 01:54:01;;;;;;;8.87;2.67;;;;;;;;;;6215212;23;20170;-82
2023/05/30 01:56:30;;;;;;;16.70;3.70;;;;;;;;;;6214810;23;20213;-82
2023/05/30 01:58:59;;;;;;;2.43;2.23;;;;;;;;;;6215443;23;20175;-82
2023/05/30 02:01:30;;;;;;;2.57;2.37;;;;;;;;;;6215407;23;20178;-82
2023/05/30 02:03:58;;;;;;;3.10;2.47;;;;;;;;;;6215501;23;20178;-82
2023/05/30 02:06:27;;;;;;;1.93;1.83;;;;;;;;;;6215117;23;20182;-82
2023/05/30 02:08:56;;;;;;;5.60;2.20;;;;;;;;;;6215348;23;20270;-82
2023/05/30 02:11:25;;;;;;;4.30;3.23;;;;;;;;;;6215732;23;20191;-82
2023/05/30 02:13:54;;;;;;;7.53;3.53;;;;;;;;;;6214928;23;20202;-82
2023/05/30 02:16:24;;;;;;;9.20;2.17;;;;;;;;;;6215400;23;20175;-82
2023/05/30 02:18:54;;;;;;;1.47;1.33;;;;;;;;;;6215217;23;20205;-82
2023/05/30 02:21:22;;;;;;;2.50;2.03;;;;;;;;;;6215044;23;20170;-82
2023/05/30 02:23:51;;;;;;;4.83;2.40;;;;;;;;;;6214699;23;20186;-85
2023/05/30 02:26:19;;;;;;;10.37;2.70;;;;;;;;;;6215321;23;20179;-85
2023/05/30 02:28:47;;;;;;;3.87;1.70;;;;;;;;;;6214927;23;20190;-82
2023/05/30 02:31:16;;;;;;;2.13;1.80;;;;;;;;;;6214851;23;20193;-82
2023/05/30 02:33:44;;;;;;;1.10;1.10;;;;;;;;;;6214926;23;20206;-82
2023/05/30 02:36:14;;;;;;;3.10;2.80;;;;;;;;;;6215226;23;20183;-82
2023/05/30 02:38:43;;;;;;;5.97;2.00;;;;;;;;;;6214713;23;20202;-82
2023/05/30 02:41:11;;;;;;;4.73;2.67;;;;;;;;;;6214657;23;20170;-82
2023/05/30 02:43:41;;;;;;;1.77;1.67;;;;;;;;;;6215274;23;20174;-82
2023/05/30 02:46:09;;;;;;;2.03;1.87;;;;;;;;;;6214818;23;20178;-82
2023/05/30 02:48:38;;;;;;;2.33;1.90;;;;;;;;;;6214901;23;20187;-84
2023/05/30 02:51:06;;;;;;;3.40;2.03;;;;;;;;;;6214579;23;20217;-85
2023/05/30 02:53:36;;;;;;;1.93;1.77;;;;;;;;;;6215147;23;20206;-85
2023/05/30 02:56:05;;;;;;;4.13;2.33;;;;;;;;;;6214697;23;20175;-85
2023/05/30 02:58:33;;;;;;;3.60;3.17;;;;;;;;;;6214742;23;20233;-85
2023/05/30 03:01:02;;;;;;;6.30;1.60;;;;;;;;;;6215086;23;20237;-85
2023/05/30 03:03:31;;;;;;;5.70;2.27;;;;;;;;;;6214856;23;20244;-85
2023/05/30 03:06:01;;;;;;;2.97;2.00;;;;;;;;;;6214471;23;20175;-85
2023/05/30 03:08:31;;;;;;;4.77;1.37;;;;;;;;;;6215336;23;20182;-85
2023/05/30 03:11:01;;;;;;;2.97;2.17;;;;;;;;;;6215113;23;20221;-85
2023/05/30 03:13:30;;;;;;;3.47;2.40;;;;;;;;;;6213885;23;20190;-85
2023/05/30 03:15:58;;;;;;;2.43;2.23;;;;;;;;;;6214818;23;20198;-85
2023/05/30 03:18:27;;;;;;;4.47;1.93;;;;;;;;;;6215136;23;20202;-85
2023/05/30 03:20:56;;;;;;;1.23;1.20;;;;;;;;;;6214488;23;20179;-85
2023/05/30 03:23:24;;;;;;;2.50;1.83;;;;;;;;;;6214743;23;20174;-85
2023/05/30 03:25:53;;;;;;;2.60;1.97;;;;;;;;;;6214571;23;20175;-85
2023/05/30 03:28:22;;;;;;;3.97;1.70;;;;;;;;;;6214372;23;20195;-85
2023/05/30 03:30:51;;;;;;;5.37;2.30;;;;;;;;;;6214303;23;20175;-82
2023/05/30 03:33:19;;;;;;;4.60;1.73;;;;;;;;;;6214156;23;20191;-82
2023/05/30 03:35:48;;;;;;;1.27;1.27;;;;;;;;;;6215161;23;20185;-82
2023/05/30 03:38:16;;;;;;;6.43;2.80;;;;;;;;;;6214003;23;20193;-82
2023/05/30 03:40:45;;;;;;;3.03;1.53;;;;;;;;;;6214719;23;20225;-82
2023/05/30 03:43:13;;;;;;;9.57;2.53;;;;;;;;;;6214621;23;20166;-82
2023/05/30 03:45:43;;;;;;;2.83;2.17;;;;;;;;;;6214162;23;20213;-82
2023/05/30 03:48:12;;;;;;;4.57;2.37;;;;;;;;;;6213682;23;20186;-82
2023/05/30 03:50:40;;;;;;;1.60;1.47;;;;;;;;;;6214120;23;20209;-82
2023/05/30 03:53:09;;;;;;;1.20;1.20;;;;;;;;;;6214102;23;20255;-82
2023/05/30 03:55:37;;;;;;;5.47;1.80;;;;;;;;;;6214112;23;20229;-82
2023/05/30 03:58:05;;;;;;;5.07;1.80;;;;;;;;;;6214330;23;20202;-82
2023/05/30 04:00:34;;;;;;;4.90;1.90;;;;;;;;;;6214720;23;20186;-82
2023/05/30 04:03:04;;;;;;;1.97;1.73;;;;;;;;;;6213838;23;20183;-82
2023/05/30 04:05:32;;;;;;;2.83;2.43;;;;;;;;;;6214411;23;20184;-82
2023/05/30 04:08:03;;;;;;;2.00;1.40;;;;;;;;;;6214491;23;20180;-82
2023/05/30 04:10:31;;;;;;;6.50;2.10;;;;;;;;;;6213839;23;20198;-82
2023/05/30 04:13:00;;;;;;;6.53;2.83;;;;;;;;;;6213880;23;20242;-82
2023/05/30 04:15:28;;;;;;;2.27;1.87;;;;;;;;;;6214458;23;20182;-82
2023/05/30 04:17:57;;;;;;;6.00;1.77;;;;;;;;;;6213653;23;20246;-82
2023/05/30 04:20:28;;;;;;;1.63;1.53;;;;;;;;;;6213406;23;20224;-82
2023/05/30 04:22:56;;;;;;;1.33;1.27;;;;;;;;;;6214332;23;20193;-82
2023/05/30 04:25:25;;;;;;;6.10;2.23;;;;;;;;;;6214275;23;20174;-82
2023/05/30 04:27:54;;;;;;;3.03;2.83;;;;;;;;;;6213711;23;20199;-82
2023/05/30 04:30:23;;;;;;;3.37;1.90;;;;;;;;;;6214065;23;20201;-82
2023/05/30 04:32:52;;;;;;;2.63;2.03;;;;;;;;;;6214097;23;20297;-82
2023/05/30 04:35:21;;;;;;;6.27;3.20;;;;;;;;;;6213934;23;20209;-82
2023/05/30 04:37:53;;;;;;;2.83;2.60;;;;;;;;;;6213764;23;20171;-81
2023/05/30 04:40:21;;;;;;;1.07;1.07;;;;;;;;;;6213802;23;20210;-81
2023/05/30 04:42:52;;;;;;;1.57;1.53;;;;;;;;;;6214162;23;20178;-81
2023/05/30 04:45:26;;;;;;;7.27;2.07;;;;;;;;;;6213343;23;20174;-81
2023/05/30 04:47:55;;;;;;;3.40;2.70;;;;;;;;;;6214157;23;20244;-81
2023/05/30 04:50:24;;;;;;;1.43;1.33;;;;;;;;;;6213510;23;20257;-81
2023/05/30 04:52:54;;;;;;;2.57;2.47;;;;;;;;;;6213668;23;20175;-81
2023/05/30 04:55:23;;;;;;;2.27;1.90;;;;;;;;;;6213359;23;20207;-81
2023/05/30 04:57:52;;;;;;;3.17;2.07;;;;;;;;;;6213741;23;20228;-81
2023/05/30 05:00:21;;;;;;;2.93;1.50;;;;;;;;;;6213491;23;20175;-81
2023/05/30 05:02:51;;;;;;;5.77;2.43;;;;;;;;;;6213292;23;20225;-81
2023/05/30 05:05:20;;;;;;;2.43;2.03;;;;;;;;;;6213468;23;20237;-81
2023/05/30 05:07:48;;;;;;;2.87;1.60;;;;;;;;;;6213795;23;20208;-81
2023/05/30 05:10:19;;;;;;;2.43;2.03;;;;;;;;;;6212561;23;20178;-81
2023/05/30 05:12:47;;;;;;;1.90;1.80;;;;;;;;;;6213714;23;20173;-81
2023/05/30 05:15:16;;;;;;;1.67;1.57;;;;;;;;;;6213359;23;20201;-81
2023/05/30 05:17:44;;;;;;;2.30;2.20;;;;;;;;;;6212994;23;20179;-81
2023/05/30 05:20:13;;;;;;;1.30;1.30;;;;;;;;;;6213433;23;20170;-81
2023/05/30 05:22:42;;;;;;;1.20;1.20;;;;;;;;;;6213952;23;20198;-81
2023/05/30 05:25:11;;;;;;;1.83;1.60;;;;;;;;;;6216193;23;20168;-85
2023/05/30 05:27:41;;;;;;;5.70;2.03;;;;;;;;;;6214933;23;20191;-85
2023/05/30 05:30:10;;;;;;;3.90;3.53;;;;;;;;;;6215743;23;20234;-81
2023/05/30 05:32:40;;;;;;;18.77;2.07;;;;;;;;;;6215176;23;20235;-81
2023/05/30 05:35:09;;;;;;;0.90;0.90;;;;;;;;;;6215162;23;20195;-80
2023/05/30 05:37:38;;;;;;;3.00;2.63;;;;;;;;;;6215526;23;20180;-81
2023/05/30 05:40:08;;;;;;;6.10;2.43;;;;;;;;;;6215381;23;20184;-80
2023/05/30 05:42:36;;;;;;;3.07;2.50;;;;;;;;;;6215004;23;20189;-80
2023/05/30 05:45:07;;;;;;;1.43;1.43;;;;;;;;;;6214906;23;20177;-86
2023/05/30 05:47:35;;;;;;;3.33;1.90;;;;;;;;;;6215386;23;20245;-86
2023/05/30 05:50:04;;;;;;;5.73;2.30;;;;;;;;;;6215448;23;20209;-86
2023/05/30 05:52:33;;;;;;;0.90;0.90;;;;;;;;;;6215219;23;20175;-86
2023/05/30 05:55:01;;;;;;;1.87;1.57;;;;;;;;;;6215914;23;20270;-85
2023/05/30 05:57:30;;;;;;;3.80;2.73;;;;;;;;;;6215567;23;20243;-80
2023/05/30 05:59:58;;;;;;;4.47;2.20;;;;;;;;;;6215050;23;20186;-79
2023/05/30 06:02:28;;;;;;;1.97;1.87;;;;;;;;;;6215366;23;20211;-85
2023/05/30 06:04:57;;;;;;;2.47;1.47;;;;;;;;;;6215739;23;20180;-84
2023/05/30 06:07:25;;;;;;;2.87;1.87;;;;;;;;;;6214940;23;20180;-84
2023/05/30 06:09:54;;;;;;;2.87;2.03;;;;;;;;;;6215666;23;20184;-84
2023/05/30 06:12:22;;;;;;;2.37;1.07;;;;;;;;;;6215390;23;20176;-84
2023/05/30 06:14:51;;;;;;;2.90;2.70;;;;;;;;;;6215066;23;20196;-85
2023/05/30 06:17:19;;;;;;;6.30;2.20;;;;;;;;;;6214813;23;20269;-84
2023/05/30 06:19:51;;;;;;;3.50;1.80;;;;;;;;;;6215596;23;20264;-85
2023/05/30 06:22:20;;;;;;;3.17;1.77;;;;;;;;;;6215211;23;20186;-85
2023/05/30 06:24:49;;;;;;;7.93;2.20;;;;;;;;;;6215265;23;20175;-84
2023/05/30 06:27:17;;;;;;;2.33;2.13;;;;;;;;;;6215252;23;20197;-85
2023/05/30 06:29:45;;;;;;;5.03;2.43;;;;;;;;;;6215341;23;20183;-84
2023/05/30 06:32:14;;;;;;;4.93;2.53;;;;;;;;;;6214927;23;20219;-84
2023/05/30 06:34:45;;;;;;;1.70;1.60;;;;;;;;;;6214698;23;20198;-85
2023/05/30 06:37:15;;;;;;;1.87;1.77;;;;;;;;;;6215637;23;20180;-84
2023/05/30 06:39:43;;;;;;;2.07;1.97;;;;;;;;;;6215017;23;20181;-84
2023/05/30 06:42:12;;;;;;;3.93;1.77;;;;;;;;;;6214375;23;20180;-84
2023/05/30 06:44:41;;;;;;;2.33;2.10;;;;;;;;;;6215000;23;20197;-85
2023/05/30 06:47:09;;;;;;;2.87;2.07;;;;;;;;;;6215272;23;20267;-85
2023/05/30 06:49:38;;;;;;;1.93;1.53;;;;;;;;;;6214975;23;20231;-84
2023/05/30 06:52:07;;;;;;;6.67;3.03;;;;;;;;;;6214731;23;20173;-84
2023/05/30 06:54:36;;;;;;;1.87;1.73;;;;;;;;;;6214921;23;20197;-84
2023/05/30 06:57:05;;;;;;;3.13;1.97;;;;;;;;;;6214901;23;20191;-80
2023/05/30 06:59:34;;;;;;;1.37;1.23;;;;;;;;;;6214503;23;20195;-80
2023/05/30 07:02:03;;;;;;;1.43;1.37;;;;;;;;;;6214588;23;20172;-80
2023/05/30 07:04:32;;;;;;;4.03;2.30;;;;;;;;;;6215375;23;20210;-80
2023/05/30 07:07:00;;;;;;;1.17;1.00;;;;;;;;;;6214748;23;20179;-83
2023/05/30 07:09:29;;;;;;;3.87;2.57;;;;;;;;;;6214573;23;20202;-84
2023/05/30 07:11:59;;;;;;;1.73;1.63;;;;;;;;;;6214724;23;20180;-84
2023/05/30 07:14:27;;;;;;;6.43;1.40;;;;;;;;;;6214507;23;20182;-84
2023/05/30 07:16:56;;;;;;;5.53;1.90;;;;;;;;;;6214378;23;20184;-84
2023/05/30 07:19:25;;;;;;;3.17;2.07;;;;;;;;;;6214344;23;20174;-84
2023/05/30 07:21:54;;;;;;;3.90;1.53;;;;;;;;;;6214230;23;20180;-84
2023/05/30 07:24:23;;;;;;;1.53;1.43;;;;;;;;;;6214253;23;20181;-84
2023/05/30 07:26:51;;;;;;;1.93;1.83;;;;;;;;;;6214057;23;20200;-84
2023/05/30 07:29:21;;;;;;;4.70;1.57;;;;;;;;;;6214895;23;20184;-84
2023/05/30 07:31:49;;;;;;;5.83;2.20;;;;;;;;;;6213810;23;20170;-84
2023/05/30 07:34:18;;;;;;;6.87;1.90;;;;;;;;;;6214695;23;20172;-84
2023/05/30 07:36:46;;;;;;;1.53;1.43;;;;;;;;;;6214367;23;20245;-83
2023/05/30 07:39:15;;;;;;;2.10;1.73;;;;;;;;;;6213968;23;20179;-84
2023/05/30 07:41:44;;;;;;;1.47;1.40;;;;;;;;;;6187859;23;20186;-84
2023/05/30 07:44:12;;;;;;;2.83;1.83;;;;;;;;;;6214504;23;20260;-84
2023/05/30 07:46:42;;;;;;;1.90;1.57;;;;;;;;;;6214427;23;20174;-84
2023/05/30 07:49:11;;;;;;;5.80;2.43;;;;;;;;;;6214719;23;20209;-84
2023/05/30 07:51:40;;;;;;;3.13;1.33;;;;;;;;;;6214024;23;20189;-84
2023/05/30 07:54:08;;;;;;;4.00;1.63;;;;;;;;;;6214334;23;20268;-84
2023/05/30 07:56:37;;;;;;;3.83;1.80;;;;;;;;;;6214239;23;20284;-83
2023/05/30 07:59:06;;;;;;;2.10;1.33;;;;;;;;;;6213901;23;20196;-84
2023/05/30 08:01:34;;;;;;;2.03;1.83;;;;;;;;;;6214791;23;20205;-84
2023/05/30 08:04:05;;;;;;;2.30;1.43;;;;;;;;;;6214555;23;20268;-84
2023/05/30 08:06:35;;;;;;;1.13;1.13;;;;;;;;;;6214083;23;20174;-80
2023/05/30 08:09:04;;;;;;;2.60;1.57;;;;;;;;;;6213911;23;20225;-80
2023/05/30 08:11:32;;;;;;;5.10;1.97;;;;;;;;;;6214591;23;20181;-80
2023/05/30 08:14:01;;;;;;;2.60;2.40;;;;;;;;;;6213541;23;20178;-81
2023/05/30 08:16:30;;;;;;;1.90;1.10;;;;;;;;;;6214173;23;20189;-80
2023/05/30 08:18:58;;;;;;;2.57;1.43;;;;;;;;;;6214252;23;20189;-80
2023/05/30 08:21:31;;;;;;;1.47;1.37;;;;;;;;;;6214316;23;20173;-80
2023/05/30 08:24:00;;;;;;;3.43;1.53;;;;;;;;;;6213443;23;20243;-80
2023/05/30 08:26:32;;;;;;;1.70;1.60;;;;;;;;;;6214398;23;20269;-80
2023/05/30 08:29:03;;;;;;;5.00;4.63;;;;;;;;;;6214142;23;20186;-80
2023/05/30 08:31:33;;;;;;;6.13;1.23;;;;;;;;;;6212740;23;20185;-80
2023/05/30 08:34:04;;;;;;;7.77;1.50;;;;;;;;;;6214756;23;20169;-80
2023/05/30 08:36:35;;;;;;;1.43;1.37;;;;;;;;;;6214401;23;20201;-81
2023/05/30 08:39:03;;;;;;;1.67;1.57;;;;;;;;;;6209245;23;20177;-82
2023/05/30 08:41:37;;;;;;;1.50;1.23;;;;;;;;;;6212819;23;20184;-82
2023/05/30 08:44:05;;;;;;;1.63;1.23;;;;;;;;;;6212417;23;20181;-81
2023/05/30 08:46:37;;;;;;;1.83;1.03;;;;;;;;;;6213294;23;20236;-82
2023/05/30 08:49:07;;;;;;;2.23;1.70;;;;;;;;;;6212496;23;20181;-82
2023/05/30 08:51:39;;;;;;;2.97;1.40;;;;;;;;;;6212549;23;20211;-81
2023/05/30 08:54:19;;;;;;;2.20;2.00;;;;;;;;;;6212656;23;20196;-83
2023/05/30 08:56:53;;;;;;;2.83;2.30;;;;;;;;;;6211695;23;20212;-81
2023/05/30 08:59:26;;;;;;;1.10;1.10;;;;;;;;;;6211973;23;20206;-81
2023/05/30 09:01:56;;;;;;;3.30;1.40;;;;;;;;;;6213243;23;20184;-82
2023/05/30 09:04:26;;;;;;;1.33;1.10;;;;;;;;;;6212573;23;20197;-82
2023/05/30 09:06:57;;;;;;;1.37;1.30;;;;;;;;;;6213725;23;20211;-82
2023/05/30 09:09:26;;;;;;;1.37;1.17;;;;;;;;;;6212410;23;20177;-82
2023/05/30 09:11:55;;;;;;;1.90;1.23;;;;;;;;;;6212273;23;20179;-82
2023/05/30 09:14:24;;;;;;;1.10;1.10;;;;;;;;;;6212314;23;20201;-82
2023/05/30 09:16:53;;;;;;;0.77;0.77;;;;;;;;;;6212954;23;20192;-82
2023/05/30 09:19:23;;;;;;;2.80;1.30;;;;;;;;;;6212825;23;20186;-83
2023/05/30 09:21:52;;;;;;;2.10;1.70;;;;;;;;;;6212173;23;20185;-83
2023/05/30 09:24:22;;;;;;;2.97;2.10;;;;;;;;;;6212881;23;20196;-83
2023/05/30 09:26:58;;;;;;;1.17;1.07;;;;;;;;;;6212761;23;20178;-85
2023/05/30 09:29:27;;;;;;;0.83;0.83;;;;;;;;;;6212216;23;20185;-85
2023/05/30 09:31:57;;;;;;;1.23;1.20;;;;;;;;;;6212311;23;20205;-86
2023/05/30 09:34:25;;;;;;;1.43;1.20;;;;;;;;;;6212717;23;20174;-86
2023/05/30 09:36:55;;;;;;;0.93;0.93;;;;;;;;;;6211864;23;20221;-86
2023/05/30 09:39:27;;;;;;;2.23;2.07;;;;;;;;;;6211982;23;20186;-86
2023/05/30 09:41:59;;;;;;;1.73;1.30;;;;;;;;;;6213176;23;20177;-86
2023/05/30 09:44:28;;;;;;;1.00;1.00;;;;;;;;;;6212281;23;20174;-86
2023/05/30 09:46:59;;;;;;;1.63;1.53;;;;;;;;;;6213119;23;20175;-86
2023/05/30 09:49:29;;;;;;;1.23;1.20;;;;;;;;;;6212670;23;20227;-85
2023/05/30 09:51:57;;;;;;;1.60;1.00;;;;;;;;;;6212852;23;20289;-85
2023/05/30 09:54:30;;;;;;;1.00;1.00;;;;;;;;;;6211692;23;20259;-82
2023/05/30 09:56:58;;;;;;;1.20;1.10;;;;;;;;;;6212752;23;20253;-83
2023/05/30 09:59:27;;;;;;;1.50;1.30;;;;;;;;;;6213233;23;20175;-83
2023/05/30 10:01:55;;;;;;;3.03;1.93;;;;;;;;;;6212695;23;20178;-82
2023/05/30 10:04:26;;;;;;;1.13;1.13;;;;;;;;;;6213284;23;20297;-85
2023/05/30 10:06:55;;;;;;;2.53;1.20;;;;;;;;;;6212673;23;20205;-84
2023/05/30 10:09:25;;;;;;;5.30;1.40;;;;;;;;;;6212959;23;20170;-84
2023/05/30 10:11:56;;;;;;;1.00;1.00;;;;;;;;;;6214778;23;20177;-84
2023/05/30 10:14:27;;;;;;;0.80;0.80;;;;;;;;;;6214303;23;20299;-84
2023/05/30 10:17:00;;;;;;;1.70;1.17;;;;;;;;;;6214337;23;20221;-83
2023/05/30 10:19:31;;;;;;;1.03;0.93;;;;;;;;;;6214383;23;20210;-83
2023/05/30 10:22:00;;;;;;;2.40;1.53;;;;;;;;;;6215715;23;20268;-84
2023/05/30 10:24:29;;;;;;;3.30;1.03;;;;;;;;;;6216653;23;20185;-83
2023/05/30 10:27:03;;;;;;;4.10;1.13;;;;;;;;;;6215449;23;20194;-83
2023/05/30 10:29:33;;;;;;;1.30;1.20;;;;;;;;;;6215930;23;20191;-84
2023/05/30 10:32:03;;;;;;;3.50;1.93;;;;;;;;;;6216251;23;20182;-84
2023/05/30 10:34:35;;;;;;;0.60;0.60;;;;;;;;;;6216330;23;20205;-83
2023/05/30 10:37:04;;;;;;;1.50;1.07;;;;;;;;;;6215607;23;20250;-84
2023/05/30 10:39:38;;;;;;;1.70;1.00;;;;;;;;;;6216590;23;20232;-84
2023/05/30 10:42:13;;;;;;;1.73;1.63;;;;;;;;;;6216320;23;20212;-83
2023/05/30 10:44:46;;;;;;;0.60;0.60;;;;;;;;;;6216144;23;20177;-84
2023/05/30 10:47:21;;;;;;;0.90;0.90;;;;;;;;;;6216171;23;20220;-84
2023/05/30 10:49:52;;;;;;;1.00;1.00;;;;;;;;;;6215612;23;20178;-84
2023/05/30 10:52:31;;;;;;;0.60;0.60;;;;;;;;;;6213499;23;20174;-85
2023/05/30 10:55:05;;;;;;;1.70;1.00;;;;;;;;;;6216679;23;20181;-85
2023/05/30 10:57:44;;;;;;;0.87;0.87;;;;;;;;;;6216080;23;20204;-84
2023/05/30 11:00:19;;;;;;;0.50;0.50;;;;;;;;;;6215951;23;20183;-83
2023/05/30 11:02:54;;;;;;;1.27;1.27;;;;;;;;;;6215603;23;20231;-86
2023/05/30 11:05:25;;;;;;;1.10;1.10;;;;;;;;;;6215470;23;20237;-86
2023/05/30 11:07:54;;;;;;;1.13;1.00;;;;;;;;;;6214913;23;20180;-85
2023/05/30 11:10:27;;;;;;;0.93;0.93;;;;;;;;;;6215237;23;20178;-86
2023/05/30 11:13:08;;;;;;;1.50;1.17;;;;;;;;;;6215661;23;20197;-86
2023/05/30 11:15:38;;;;;;;1.43;1.10;;;;;;;;;;6215276;23;20262;-86
2023/05/30 11:18:16;;;;;;;0.90;0.90;;;;;;;;;;6214814;23;20187;-85
2023/05/30 11:20:54;;;;;;;1.53;1.43;;;;;;;;;;6215037;23;20175;-85
2023/05/30 11:23:27;;;;;;;0.90;0.90;;;;;;;;;;6214306;23;20181;-87
2023/05/30 11:26:00;;;;;;;0.80;0.80;;;;;;;;;;6215816;23;20280;-87
2023/05/30 11:28:36;;;;;;;0.80;0.80;;;;;;;;;;6214914;23;20183;-86
2023/05/30 11:31:26;;;;;;;0.90;0.90;;;;;;;;;;6215339;23;20171;-87
2023/05/30 11:33:54;;;;;;;0.60;0.60;;;;;;;;;;6210520;23;20182;-87
2023/05/30 11:36:23;;;;;;;0.93;0.93;;;;;;;;;;6214624;23;20191;-85
2023/05/30 11:38:53;;;;;;;1.00;1.00;;;;;;;;;;6214297;23;20210;-86
2023/05/30 11:41:24;;;;;;;0.70;0.70;;;;;;;;;;6214887;23;20171;-85
2023/05/30 11:43:55;;;;;;;0.87;0.87;;;;;;;;;;6212886;23;20206;-86
2023/05/30 11:46:24;;;;;;;0.80;0.80;;;;;;;;;;6214009;23;20181;-86
2023/05/30 11:48:57;;;;;;;0.87;0.87;;;;;;;;;;6214410;23;20170;-87
2023/05/30 11:51:26;;;;;;;0.97;0.97;;;;;;;;;;6214034;23;20210;-86
2023/05/30 11:53:55;;;;;;;0.90;0.90;;;;;;;;;;6214031;23;20189;-86
2023/05/30 11:56:29;;;;;;;0.87;0.87;;;;;;;;;;6214100;23;20220;-85
2023/05/30 11:59:01;;;;;;;0.70;0.70;;;;;;;;;;6214040;23;20198;-87
2023/05/30 12:01:30;;;;;;;7.17;1.43;;;;;;;;;;6212974;23;20174;-85
2023/05/30 12:03:58;;;;;;;1.00;1.00;;;;;;;;;;6213631;23;20184;-85
2023/05/30 12:06:27;;;;;;;1.13;1.07;;;;;;;;;;6213744;23;20170;-86
2023/05/30 12:08:57;;;;;;;2.13;0.80;;;;;;;;;;6212503;23;20174;-85
2023/05/30 12:11:32;;;;;;;0.63;0.63;;;;;;;;;;6214541;23;20167;-86
2023/05/30 12:14:03;;;;;;;0.93;0.93;;;;;;;;;;6213193;23;20212;-84
2023/05/30 12:16:31;;;;;;;0.80;0.80;;;;;;;;;;6211160;23;20175;-85
2023/05/30 12:19:00;;;;;;;0.80;0.80;;;;;;;;;;6212172;23;20189;-86
2023/05/30 12:21:31;;;;;;;1.10;0.90;;;;;;;;;;6212146;23;20193;-86
2023/05/30 12:24:07;;;;;;;0.80;0.80;;;;;;;;;;6211571;23;20182;-85
2023/05/30 12:26:36;;;;;;;0.70;0.70;;;;;;;;;;6211406;23;20198;-86
2023/05/30 12:29:10;;;;;;;1.17;1.10;;;;;;;;;;6212426;23;20174;-85
2023/05/30 12:31:39;;;;;;;1.43;1.20;;;;;;;;;;6210755;23;20185;-85
2023/05/30 12:34:08;;;;;;;2.70;1.10;;;;;;;;;;6208818;23;20296;-85
2023/05/30 12:36:37;;;;;;;1.13;1.00;;;;;;;;;;6211061;23;20177;-86
2023/05/30 12:39:08;;;;;;;0.70;0.70;;;;;;;;;;6211759;23;20206;-85
2023/05/30 12:41:40;;;;;;;1.43;1.33;;;;;;;;;;6210776;23;20321;-85
2023/05/30 12:44:18;;;;;;;0.80;0.80;;;;;;;;;;6210348;23;20170;-85
2023/05/30 12:46:47;;;;;;;3.03;2.50;;;;;;;;;;6211594;23;20184;-85
2023/05/30 12:49:17;;;;;;;0.93;0.93;;;;;;;;;;6211357;23;20194;-86
2023/05/30 12:51:45;;;;;;;2.20;1.47;;;;;;;;;;6211687;23;20214;-85
2023/05/30 12:54:18;;;;;;;2.83;1.50;;;;;;;;;;6212073;23;20193;-86
2023/05/30 12:56:49;;;;;;;1.23;1.23;;;;;;;;;;6210960;23;20174;-85
2023/05/30 12:59:25;;;;;;;1.10;1.07;;;;;;;;;;6211250;23;20236;-85
2023/05/30 13:01:54;;;;;;;0.77;0.70;;;;;;;;;;6212081;23;20192;-85
2023/05/30 13:04:25;;;;;;;1.00;1.00;;;;;;;;;;6212802;23;20181;-86
2023/05/30 13:06:54;;;;;;;1.00;1.00;;;;;;;;;;6210471;23;20188;-86
2023/05/30 13:09:22;;;;;;;1.50;1.40;;;;;;;;;;6211865;23;20184;-85
2023/05/30 13:11:52;;;;;;;0.83;0.83;;;;;;;;;;6211645;23;20246;-87
2023/05/30 13:14:21;;;;;;;1.67;1.57;;;;;;;;;;6210154;23;20171;-86
2023/05/30 13:16:51;;;;;;;2.50;1.17;;;;;;;;;;6210473;23;20182;-87
2023/05/30 13:19:20;;;;;;;1.60;1.50;;;;;;;;;;6211831;23;20194;-86
2023/05/30 13:21:48;;;;;;;1.87;1.00;;;;;;;;;;6209749;23;20206;-90
2023/05/30 13:24:18;;;;;;;2.77;1.13;;;;;;;;;;6211181;23;20183;-89
2023/05/30 13:26:49;;;;;;;1.10;0.97;;;;;;;;;;6211132;23;20231;-88
2023/05/30 13:29:18;;;;;;;5.40;1.00;;;;;;;;;;6211495;23;20257;-87
2023/05/30 13:31:47;;;;;;;0.93;0.93;;;;;;;;;;6210664;23;20181;-87
2023/05/30 13:34:17;;;;;;;1.10;1.10;;;;;;;;;;6212086;23;20188;-86
2023/05/30 13:36:46;;;;;;;1.20;1.20;;;;;;;;;;6211403;23;20257;-86
2023/05/30 13:39:18;;;;;;;1.13;1.13;;;;;;;;;;6211987;23;20189;-87
2023/05/30 13:41:46;;;;;;;1.17;1.17;;;;;;;;;;6211961;23;20178;-87
2023/05/30 13:44:15;;;;;;;1.67;1.27;;;;;;;;;;6212433;23;20221;-87
2023/05/30 13:46:45;;;;;;;1.20;1.10;;;;;;;;;;6213433;23;20220;-87
2023/05/30 13:49:14;;;;;;;1.70;1.30;;;;;;;;;;6215032;23;20179;-86
2023/05/30 13:51:44;;;;;;;1.27;1.17;;;;;;;;;;6213961;23;20202;-86
2023/05/30 13:54:13;;;;;;;1.43;1.33;;;;;;;;;;6213584;23;20166;-87
2023/05/30 13:56:41;;;;;;;0.70;0.70;;;;;;;;;;6212362;23;20181;-88
2023/05/30 13:59:19;;;;;;;0.67;0.67;;;;;;;;;;6213124;23;20201;-87
2023/05/30 14:01:48;;;;;;;0.97;0.97;;;;;;;;;;6214774;23;20177;-87
2023/05/30 14:04:16;;;;;;;1.00;0.87;;;;;;;;;;6215000;23;20179;-86
2023/05/30 14:06:50;;;;;;;1.17;1.17;;;;;;;;;;6214984;23;20211;-87
2023/05/30 14:09:20;;;;;;;1.17;1.03;;;;;;;;;;6213370;23;20165;-88
2023/05/30 14:11:49;;;;;;;2.67;1.10;;;;;;;;;;6213426;23;20171;-87
2023/05/30 14:14:18;;;;;;;0.70;0.70;;;;;;;;;;6211398;23;20210;-88
2023/05/30 14:16:48;;;;;;;0.90;0.90;;;;;;;;;;6211599;23;20175;-87
2023/05/30 14:19:17;;;;;;;1.47;1.13;;;;;;;;;;6215978;23;20290;-86
2023/05/30 14:21:49;;;;;;;1.17;1.13;;;;;;;;;;6215093;23;20193;-86
2023/05/30 14:24:17;;;;;;;0.97;0.93;;;;;;;;;;6214324;23;20210;-86
2023/05/30 14:26:46;;;;;;;0.93;0.90;;;;;;;;;;6214182;23;20184;-87
2023/05/30 14:29:15;;;;;;;0.93;0.93;;;;;;;;;;6213985;23;20175;-86
2023/05/30 14:31:43;;;;;;;0.87;0.87;;;;;;;;;;6214119;23;20174;-87
2023/05/30 14:34:14;;;;;;;0.60;0.60;;;;;;;;;;6213804;23;20188;-86
2023/05/30 14:36:43;;;;;;;0.60;0.60;;;;;;;;;;6214950;23;20245;-85
2023/05/30 14:39:13;;;;;;;0.73;0.73;;;;;;;;;;6213822;23;20187;-85
2023/05/30 14:41:42;;;;;;;1.30;1.20;;;;;;;;;;6213689;23;20178;-86
2023/05/30 14:44:10;;;;;;;1.20;1.13;;;;;;;;;;6214482;23;20179;-86
2023/05/30 14:46:41;;;;;;;1.47;1.37;;;;;;;;;;6214651;23;20174;-85
2023/05/30 14:49:09;;;;;;;0.70;0.70;;;;;;;;;;6213513;23;20181;-85
2023/05/30 14:51:38;;;;;;;1.70;1.13;;;;;;;;;;6213596;23;20202;-85
2023/05/30 14:54:08;;;;;;;1.63;1.53;;;;;;;;;;6213704;23;20185;-82
2023/05/30 14:56:38;;;;;;;0.70;0.70;;;;;;;;;;6212666;23;20175;-82
2023/05/30 14:59:09;;;;;;;2.10;1.10;;;;;;;;;;6213393;23;20244;-82